createdAt,value
2022-10-23T00:01:43.667Z,5.15
2022-10-23T00:04:22.310Z,10.07
2022-10-23T00:06:50.478Z,7.20
2022-10-23T00:09:22.195Z,16.90
2022-10-23T00:11:51.073Z,15.32
2022-10-23T00:14:22.931Z,6.70
2022-10-23T00:16:50.041Z,6.55
2022-10-23T00:19:16.798Z,6.25
2022-10-23T00:21:43.579Z,5.00
2022-10-23T00:26:42.759Z,8.60
2022-10-23T00:29:10.745Z,8.02
2022-10-23T00:31:38.674Z,12.93
2022-10-23T00:34:08.168Z,7.03
2022-10-23T00:36:35.754Z,6.03
2022-10-23T00:39:03.022Z,6.50
2022-10-23T00:41:32.129Z,7.88
2022-10-23T00:44:10.906Z,6.15
2022-10-23T00:46:40.058Z,4.47
2022-10-23T00:49:08.129Z,5.47
2022-10-23T00:51:47.679Z,4.38
2022-10-23T00:54:26.592Z,4.93
2022-10-23T00:56:59.386Z,4.97
2022-10-23T00:59:26.996Z,6.38
2022-10-23T01:01:54.441Z,4.97
2022-10-23T01:04:22.815Z,5.45
2022-10-23T01:07:08.391Z,8.63
2022-10-23T01:10:09.755Z,8.23
2022-10-23T01:12:51.723Z,5.95
2022-10-23T01:16:08.418Z,5.43
2022-10-23T01:19:11.393Z,4.55
2022-10-23T01:22:04.158Z,4.32
2022-10-23T01:25:18.408Z,4.15
2022-10-23T01:27:55.897Z,5.70
2022-10-23T01:30:22.771Z,6.13
2022-10-23T01:33:00.096Z,4.55
2022-10-23T01:35:52.730Z,4.70
2022-10-23T01:38:28.046Z,4.37
2022-10-23T01:41:21.008Z,3.13
2022-10-23T01:44:00.158Z,5.53
2022-10-23T01:46:28.982Z,3.08
2022-10-23T01:48:58.630Z,3.40
2022-10-23T01:51:30.268Z,3.97
2022-10-23T01:54:01.054Z,4.30
2022-10-23T01:56:38.137Z,3.90
2022-10-23T01:59:12.223Z,4.55
2022-10-23T02:01:46.499Z,5.00
2022-10-23T02:04:22.350Z,4.95
2022-10-23T02:06:49.489Z,3.60
2022-10-23T02:09:16.698Z,3.85
2022-10-23T02:12:01.101Z,4.97
2022-10-23T02:15:10.493Z,3.67
2022-10-23T02:18:04.148Z,4.55
2022-10-23T02:23:27.713Z,3.50
2022-10-23T02:26:07.639Z,4.50
2022-10-23T02:28:43.689Z,5.40
2022-10-23T02:31:15.978Z,5.05
2022-10-23T02:33:45.379Z,3.75
2022-10-23T02:36:12.722Z,3.83
2022-10-23T02:38:43.301Z,3.95
2022-10-23T02:41:28.738Z,3.88
2022-10-23T02:44:37.726Z,3.33
2022-10-23T02:47:34.987Z,3.72
2022-10-23T02:50:28.757Z,3.30
2022-10-23T02:52:59.987Z,3.45
2022-10-23T02:56:07.394Z,4.23
2022-10-23T02:58:36.929Z,4.43
2022-10-23T03:01:14.058Z,3.80
2022-10-23T03:03:55.364Z,3.60
2022-10-23T03:06:24.422Z,3.08
2022-10-23T03:08:59.855Z,3.60
2022-10-23T03:11:26.727Z,3.53
2022-10-23T03:13:53.495Z,3.33
2022-10-23T03:16:20.285Z,3.45
2022-10-23T03:18:47.007Z,3.53
2022-10-23T03:21:13.821Z,4.28
2022-10-23T03:23:40.621Z,3.83
2022-10-23T03:26:07.468Z,4.00
2022-10-23T03:28:35.417Z,3.43
2022-10-23T03:31:03.875Z,4.05
2022-10-23T03:33:31.808Z,3.28
2022-10-23T03:35:58.561Z,2.90
2022-10-23T03:38:25.484Z,3.47
2022-10-23T03:40:52.325Z,3.53
2022-10-23T03:43:19.092Z,3.53
2022-10-23T03:45:45.819Z,3.17
2022-10-23T03:48:12.573Z,3.15
2022-10-23T03:50:39.278Z,3.13
2022-10-23T03:53:06.047Z,3.65
2022-10-23T03:55:32.766Z,3.35
2022-10-23T03:57:59.674Z,3.50
2022-10-23T04:00:26.412Z,3.47
2022-10-23T04:02:53.199Z,4.07
2022-10-23T04:05:19.977Z,3.20
2022-10-23T04:07:46.776Z,3.23
2022-10-23T04:10:13.531Z,3.13
2022-10-23T04:12:40.454Z,2.85
2022-10-23T04:15:08.097Z,4.45
2022-10-23T04:17:34.963Z,2.88
2022-10-23T04:20:01.766Z,3.92
2022-10-23T04:22:28.718Z,3.60
2022-10-23T04:24:55.862Z,3.83
2022-10-23T04:27:23.145Z,4.00
2022-10-23T04:29:49.965Z,3.45
2022-10-23T04:32:16.728Z,2.97
2022-10-23T04:34:43.527Z,3.42
2022-10-23T04:37:10.278Z,3.95
2022-10-23T04:39:37.015Z,3.33
2022-10-23T04:42:04.077Z,4.20
2022-10-23T04:44:30.798Z,4.13
2022-10-23T04:46:57.502Z,4.70
2022-10-23T04:49:24.304Z,4.40
2022-10-23T04:51:51.117Z,3.65
2022-10-23T04:54:17.904Z,3.22
2022-10-23T04:56:44.650Z,3.58
2022-10-23T04:59:11.366Z,3.80
2022-10-23T05:01:38.426Z,3.60
2022-10-23T05:04:05.308Z,3.53
2022-10-23T05:06:32.055Z,3.67
2022-10-23T05:08:58.895Z,3.35
2022-10-23T05:11:25.743Z,2.80
2022-10-23T05:13:52.503Z,3.13
2022-10-23T05:16:39.393Z,3.28
2022-10-23T05:19:10.738Z,3.10
2022-10-23T05:21:39.803Z,3.78
2022-10-23T05:24:06.953Z,3.45
2022-10-23T05:26:33.717Z,3.00
2022-10-23T05:29:00.498Z,3.22
2022-10-23T05:31:27.463Z,3.47
2022-10-23T05:33:56.378Z,3.75
2022-10-23T05:36:25.763Z,4.13
2022-10-23T05:38:53.573Z,4.00
2022-10-23T05:41:20.323Z,4.10
2022-10-23T05:43:47.041Z,3.55
2022-10-23T05:46:13.817Z,3.85
2022-10-23T05:48:40.602Z,3.65
2022-10-23T05:51:10.919Z,4.00
2022-10-23T05:53:40.321Z,4.13
2022-10-23T05:56:09.754Z,3.70
2022-10-23T05:58:36.568Z,3.65
2022-10-23T06:01:09.177Z,3.85
2022-10-23T06:03:37.577Z,3.45
2022-10-23T06:06:05.984Z,4.40
2022-10-23T06:08:34.114Z,3.75
2022-10-23T06:11:10.262Z,3.80
2022-10-23T06:13:37.498Z,3.45
2022-10-23T06:16:19.702Z,4.15
2022-10-23T06:18:47.410Z,3.85
2022-10-23T06:21:15.239Z,4.22
2022-10-23T06:23:44.256Z,3.60
2022-10-23T06:26:14.934Z,3.47
2022-10-23T06:28:43.345Z,5.13
2022-10-23T06:31:14.977Z,4.25
2022-10-23T06:33:41.997Z,3.40
2022-10-23T06:36:10.474Z,4.43
2022-10-23T06:38:40.628Z,4.07
2022-10-23T06:41:16.355Z,4.15
2022-10-23T06:43:43.689Z,4.20
2022-10-23T06:46:10.862Z,4.53
2022-10-23T06:48:37.606Z,3.97
2022-10-23T06:51:08.036Z,3.70
2022-10-23T06:53:36.829Z,3.35
2022-10-23T06:56:06.732Z,3.45
2022-10-23T06:58:36.463Z,3.72
2022-10-23T07:01:08.000Z,3.90
2022-10-23T07:03:35.377Z,3.97
2022-10-23T07:06:05.372Z,3.55
2022-10-23T07:08:32.742Z,4.43
2022-10-23T07:11:05.876Z,3.58
2022-10-23T07:13:35.055Z,3.25
2022-10-23T07:16:21.490Z,3.50
2022-10-23T07:18:49.920Z,3.50
2022-10-23T07:21:16.777Z,2.90
2022-10-23T07:23:43.566Z,3.03
2022-10-23T07:26:15.470Z,3.30
2022-10-23T07:28:45.198Z,3.00
2022-10-23T07:31:13.282Z,3.05
2022-10-23T07:33:40.488Z,2.75
2022-10-23T07:36:09.310Z,3.17
2022-10-23T07:38:36.595Z,2.92
2022-10-23T07:41:04.611Z,2.90
2022-10-23T07:46:05.270Z,3.15
2022-10-23T07:48:32.029Z,2.80
2022-10-23T07:51:11.078Z,3.15
2022-10-23T07:53:38.991Z,3.00
2022-10-23T07:56:24.090Z,2.88
2022-10-23T07:58:53.994Z,3.15
2022-10-23T08:01:29.423Z,3.08
2022-10-23T08:03:56.263Z,2.28
2022-10-23T08:06:23.206Z,2.92
2022-10-23T08:08:49.965Z,2.95
2022-10-23T08:11:25.702Z,2.42
2022-10-23T08:13:54.663Z,2.92
2022-10-23T08:16:22.312Z,2.03
2022-10-23T08:18:49.750Z,2.33
2022-10-23T08:21:17.909Z,2.28
2022-10-23T08:23:45.419Z,2.33
2022-10-23T08:26:14.360Z,2.00
2022-10-23T08:28:41.440Z,2.60
2022-10-23T08:31:14.488Z,1.98
2022-10-23T08:33:42.889Z,2.17
2022-10-23T08:36:26.910Z,2.03
2022-10-23T08:38:56.424Z,2.25
2022-10-23T08:41:47.624Z,2.13
2022-10-23T08:44:40.656Z,2.17
2022-10-23T08:47:17.099Z,2.53
2022-10-23T08:49:56.907Z,2.28
2022-10-23T08:52:40.357Z,2.20
2022-10-23T08:55:27.520Z,2.10
2022-10-23T08:58:10.927Z,2.20
2022-10-23T09:00:37.765Z,2.17
2022-10-23T09:03:05.819Z,3.10
2022-10-23T09:05:47.786Z,3.45
2022-10-23T09:08:43.989Z,3.22
2022-10-23T09:11:40.886Z,2.50
2022-10-23T09:14:55.367Z,2.97
2022-10-23T09:17:31.449Z,3.00
2022-10-23T09:20:20.892Z,2.90
2022-10-23T09:23:00.293Z,2.65
2022-10-23T09:25:38.568Z,2.47
2022-10-23T09:28:06.816Z,2.22
2022-10-23T09:30:42.465Z,1.88
2022-10-23T09:33:28.149Z,2.60
2022-10-23T09:36:18.678Z,2.03
2022-10-23T09:38:45.388Z,1.77
2022-10-23T09:41:34.727Z,1.92
2022-10-23T09:44:07.695Z,1.27
2022-10-23T09:46:48.328Z,2.17
2022-10-23T09:49:24.205Z,2.00
2022-10-23T09:52:00.503Z,1.92
2022-10-23T09:54:31.058Z,2.00
2022-10-23T09:57:21.457Z,2.13
2022-10-23T10:00:01.175Z,1.80
2022-10-23T10:02:33.702Z,2.10
2022-10-23T10:05:21.118Z,1.80
2022-10-23T10:08:07.097Z,1.55
2022-10-23T10:10:47.706Z,1.83
2022-10-23T10:13:38.123Z,1.42
2022-10-23T10:16:27.602Z,1.90
2022-10-23T10:19:22.828Z,1.70
2022-10-23T10:22:28.486Z,1.73
2022-10-23T10:25:21.950Z,1.40
2022-10-23T10:28:21.074Z,1.63
2022-10-23T10:31:08.237Z,2.20
2022-10-23T10:34:06.894Z,1.40
2022-10-23T10:36:55.560Z,1.48
2022-10-23T10:39:45.523Z,1.50
2022-10-23T10:42:45.806Z,2.00
2022-10-23T10:45:32.189Z,1.45
2022-10-23T10:48:26.578Z,1.35
2022-10-23T10:51:12.533Z,1.63
2022-10-23T10:54:18.841Z,1.98
2022-10-23T10:56:48.642Z,1.73
2022-10-23T10:59:28.106Z,1.65
2022-10-23T11:02:31.191Z,1.00
2022-10-23T11:05:10.246Z,1.20
2022-10-23T11:07:53.343Z,1.30
2022-10-23T11:10:20.262Z,1.40
2022-10-23T11:12:49.150Z,1.23
2022-10-23T11:15:43.867Z,1.33
2022-10-23T11:18:25.380Z,1.20
2022-10-23T11:21:19.250Z,1.50
2022-10-23T11:24:04.576Z,1.52
2022-10-23T11:26:56.057Z,1.30
2022-10-23T11:29:42.038Z,1.45
2022-10-23T11:32:48.989Z,1.27
2022-10-23T11:35:50.155Z,1.15
2022-10-23T11:38:34.556Z,1.42
2022-10-23T11:41:34.690Z,1.10
2022-10-23T11:44:04.562Z,1.50
2022-10-23T11:46:36.289Z,1.00
2022-10-23T11:49:06.590Z,1.02
2022-10-23T11:51:35.789Z,1.45
2022-10-23T11:54:27.209Z,1.60
2022-10-23T11:57:14.801Z,1.40
2022-10-23T11:59:54.505Z,1.33
2022-10-23T12:02:32.272Z,1.38
2022-10-23T12:05:06.065Z,1.40
2022-10-23T12:07:41.928Z,1.55
2022-10-23T12:10:43.923Z,1.38
2022-10-23T12:13:30.931Z,1.98
2022-10-23T12:16:00.755Z,2.03
2022-10-23T12:18:28.634Z,1.73
2022-10-23T12:21:04.546Z,1.58
2022-10-23T12:24:08.822Z,1.65
2022-10-23T12:27:04.325Z,1.70
2022-10-23T12:29:55.348Z,1.70
2022-10-23T12:32:47.658Z,1.63
2022-10-23T12:35:49.773Z,1.83
2022-10-23T12:38:20.818Z,1.60
2022-10-23T12:41:02.370Z,1.60
2022-10-23T12:43:33.650Z,1.83
2022-10-23T12:46:22.296Z,1.42
2022-10-23T12:48:52.278Z,2.10
2022-10-23T12:51:32.175Z,2.00
2022-10-23T12:53:59.551Z,1.90
2022-10-23T12:56:29.522Z,1.60
2022-10-23T12:59:02.665Z,1.35
2022-10-23T13:01:33.729Z,1.50
2022-10-23T13:04:34.451Z,1.30
2022-10-23T13:07:03.997Z,1.30
2022-10-23T13:09:40.843Z,1.60
2022-10-23T13:12:17.710Z,1.75
2022-10-23T13:14:57.754Z,1.50
2022-10-23T13:17:38.158Z,1.75
2022-10-23T13:20:26.617Z,1.42
2022-10-23T13:23:21.423Z,1.58
2022-10-23T13:26:23.341Z,1.42
2022-10-23T13:28:51.529Z,1.67
2022-10-23T13:31:18.338Z,1.63
2022-10-23T13:33:52.258Z,1.42
2022-10-23T13:36:18.926Z,1.55
2022-10-23T13:39:09.316Z,2.05
2022-10-23T13:41:41.607Z,1.67
2022-10-23T13:44:12.651Z,1.60
2022-10-23T13:46:40.010Z,1.40
2022-10-23T13:49:07.037Z,1.38
2022-10-23T13:52:03.323Z,1.65
2022-10-23T13:54:30.491Z,1.80
2022-10-23T13:56:57.668Z,2.10
2022-10-23T13:59:24.545Z,1.92
2022-10-23T14:01:52.007Z,1.88
2022-10-23T14:04:19.798Z,1.88
2022-10-23T14:06:47.039Z,2.10
2022-10-23T14:09:18.113Z,1.70
2022-10-23T14:11:45.217Z,1.92
2022-10-23T14:14:12.132Z,2.10
2022-10-23T14:16:38.983Z,1.70
2022-10-23T14:19:06.065Z,2.17
2022-10-23T14:21:32.792Z,2.15
2022-10-23T14:23:59.595Z,1.80
2022-10-23T14:26:30.149Z,1.63
2022-10-23T14:29:00.694Z,1.92
2022-10-23T14:31:31.182Z,2.20
2022-10-23T14:34:00.634Z,1.92
2022-10-23T14:36:38.434Z,1.88
2022-10-23T14:39:16.166Z,1.70
2022-10-23T14:41:42.962Z,2.25
2022-10-23T14:44:09.731Z,1.98
2022-10-23T14:46:38.224Z,1.83
2022-10-23T14:49:05.406Z,2.00
2022-10-23T14:51:32.687Z,1.77
2022-10-23T14:54:02.978Z,1.58
2022-10-23T14:56:39.335Z,1.52
2022-10-23T14:59:06.567Z,1.88
2022-10-23T15:01:45.442Z,2.25
2022-10-23T15:04:15.540Z,1.77
2022-10-23T15:06:43.554Z,2.72
2022-10-23T15:09:10.426Z,2.05
2022-10-23T15:11:37.246Z,2.08
2022-10-23T15:14:04.094Z,2.05
2022-10-23T15:16:31.281Z,2.40
2022-10-23T15:18:58.126Z,2.10
2022-10-23T15:21:24.911Z,2.70
2022-10-23T15:23:53.016Z,2.67
2022-10-23T15:26:22.881Z,2.58
2022-10-23T15:28:59.714Z,2.35
2022-10-23T15:31:29.311Z,2.33
2022-10-23T15:33:59.985Z,2.63
2022-10-23T15:36:26.986Z,2.83
2022-10-23T15:38:53.772Z,2.42
2022-10-23T15:41:41.298Z,2.78
2022-10-23T15:44:13.191Z,2.75
2022-10-23T15:46:40.255Z,2.70
2022-10-23T15:49:08.476Z,2.70
2022-10-23T15:51:36.881Z,2.50
2022-10-23T15:54:13.461Z,2.67
2022-10-23T15:56:40.276Z,3.10
2022-10-23T15:59:07.028Z,2.20
2022-10-23T16:01:33.955Z,1.88
2022-10-23T16:04:00.758Z,3.72
2022-10-23T16:06:27.517Z,2.92
2022-10-23T16:11:30.602Z,3.33
2022-10-23T16:13:59.863Z,3.08
2022-10-23T16:16:28.943Z,2.47
2022-10-23T16:18:58.612Z,2.47
2022-10-23T16:21:29.618Z,2.25
2022-10-23T16:23:59.642Z,2.10
2022-10-23T16:26:28.469Z,2.00
2022-10-23T16:28:58.958Z,2.63
2022-10-23T16:31:27.477Z,2.40
2022-10-23T16:36:25.020Z,3.35
2022-10-23T16:38:51.814Z,2.92
2022-10-23T16:41:18.591Z,1.92
2022-10-23T16:43:45.359Z,2.65
2022-10-23T16:46:16.159Z,3.55
2022-10-23T16:48:43.532Z,3.22
2022-10-23T16:51:15.065Z,3.38
2022-10-23T16:53:43.671Z,3.03
2022-10-23T16:56:15.249Z,3.28
2022-10-23T16:58:43.726Z,2.83
2022-10-23T17:01:15.522Z,2.90
2022-10-23T17:03:48.105Z,2.97
2022-10-23T17:06:20.006Z,2.70
2022-10-23T17:08:47.662Z,2.88
2022-10-23T17:11:17.492Z,3.55
2022-10-23T17:14:17.494Z,3.78
2022-10-23T17:16:48.872Z,3.38
2022-10-23T17:19:46.959Z,3.65
2022-10-23T17:22:10.433Z,4.03
2022-10-23T17:24:40.023Z,3.88
2022-10-23T17:27:06.843Z,4.97
2022-10-23T17:29:33.733Z,6.70
2022-10-23T17:32:00.690Z,7.22
2022-10-23T17:34:27.474Z,6.55
2022-10-23T17:36:56.004Z,5.90
2022-10-23T17:39:29.304Z,5.63
2022-10-23T17:41:57.248Z,5.13
2022-10-23T17:44:24.675Z,3.92
2022-10-23T17:46:54.078Z,3.28
2022-10-23T17:49:22.866Z,2.15
2022-10-23T17:51:57.695Z,2.03
2022-10-23T17:54:27.235Z,1.60
2022-10-23T17:56:54.320Z,1.20
2022-10-23T17:59:21.400Z,2.15
2022-10-23T18:01:49.291Z,2.00
2022-10-23T18:04:19.613Z,1.70
2022-10-23T18:06:51.358Z,1.90
2022-10-23T18:09:20.961Z,2.13
2022-10-23T18:11:48.584Z,2.03
2022-10-23T18:14:18.123Z,2.20
2022-10-23T18:16:45.891Z,2.33
2022-10-23T18:19:14.617Z,3.83
2022-10-23T18:21:41.381Z,6.40
2022-10-23T18:24:08.495Z,5.80
2022-10-23T18:26:37.584Z,3.17
2022-10-23T18:29:07.620Z,4.45
2022-10-23T18:31:37.307Z,3.88
2022-10-23T18:34:15.343Z,2.33
2022-10-23T18:36:42.505Z,3.63
2022-10-23T18:39:14.251Z,3.22
2022-10-23T18:41:43.701Z,3.97
2022-10-23T18:44:15.612Z,3.60
2022-10-23T18:46:42.722Z,3.50
2022-10-23T18:49:09.921Z,3.50
2022-10-23T18:51:38.086Z,3.10
2022-10-23T18:54:11.301Z,3.28
2022-10-23T18:56:39.707Z,2.83
2022-10-23T18:59:12.818Z,4.80
2022-10-23T19:01:40.098Z,3.67
2022-10-23T19:04:07.814Z,5.07
2022-10-23T19:06:37.250Z,5.78
2022-10-23T19:09:08.442Z,5.20
2022-10-23T19:11:36.947Z,4.45
2022-10-23T19:14:05.556Z,4.95
2022-10-23T19:16:43.790Z,5.50
2022-10-23T19:19:25.520Z,6.07
2022-10-23T19:21:53.879Z,4.82
2022-10-23T19:24:33.554Z,5.00
2022-10-23T19:27:02.317Z,3.90
2022-10-23T19:29:30.154Z,4.28
2022-10-23T19:31:57.235Z,4.80
2022-10-23T19:34:26.102Z,5.75
2022-10-23T19:36:54.724Z,7.13
2022-10-23T19:39:22.927Z,7.70
2022-10-23T19:41:51.515Z,7.97
2022-10-23T19:44:19.613Z,7.80
2022-10-23T19:46:47.472Z,7.95
2022-10-23T19:49:14.451Z,7.95
2022-10-23T19:51:50.595Z,7.40
2022-10-23T19:54:18.768Z,8.05
2022-10-23T19:56:45.487Z,6.57
2022-10-23T19:59:15.671Z,7.40
2022-10-23T20:01:45.162Z,6.95
2022-10-23T20:04:19.017Z,6.90
2022-10-23T20:06:47.082Z,7.47
2022-10-23T20:09:14.026Z,6.50
2022-10-23T20:11:40.942Z,6.85
2022-10-23T20:14:08.111Z,7.50
2022-10-23T20:16:38.369Z,7.28
2022-10-23T20:19:09.479Z,6.97
2022-10-23T20:21:38.838Z,7.20
2022-10-23T20:24:07.089Z,6.95
2022-10-23T20:26:34.189Z,6.85
2022-10-23T20:29:00.965Z,6.55
2022-10-23T20:31:28.250Z,7.57
2022-10-23T20:33:56.790Z,5.93
2022-10-23T20:36:30.132Z,7.00
2022-10-23T20:38:59.135Z,6.15
2022-10-23T20:41:28.452Z,6.03
2022-10-23T20:43:56.152Z,7.10
2022-10-23T20:46:23.237Z,7.18
2022-10-23T20:48:50.457Z,6.47
2022-10-23T20:51:22.165Z,6.82
2022-10-23T20:53:49.727Z,7.43
2022-10-23T20:56:31.018Z,7.95
2022-10-23T20:59:11.026Z,7.68
2022-10-23T21:01:46.053Z,7.40
2022-10-23T21:04:14.353Z,8.88
2022-10-23T21:07:04.434Z,7.85
2022-10-23T21:09:30.580Z,6.82
2022-10-23T21:11:57.363Z,6.45
2022-10-23T21:14:24.204Z,5.85
2022-10-23T21:16:50.977Z,6.30
2022-10-23T21:19:17.748Z,6.28
2022-10-23T21:21:44.871Z,6.72
2022-10-23T21:24:17.146Z,6.50
2022-10-23T21:26:45.162Z,6.28
2022-10-23T21:29:20.808Z,5.80
2022-10-23T21:31:57.014Z,5.68
2022-10-23T21:34:25.784Z,6.15
2022-10-23T21:39:39.818Z,5.22
2022-10-23T21:42:06.790Z,5.00
2022-10-23T21:44:33.801Z,4.78
2022-10-23T21:47:00.525Z,5.75
2022-10-23T21:49:27.343Z,5.07
2022-10-23T21:51:54.938Z,5.50
2022-10-23T21:54:22.152Z,4.93
2022-10-23T21:56:53.440Z,4.78
2022-10-23T21:59:25.831Z,3.97
2022-10-23T22:01:54.818Z,5.00
2022-10-23T22:04:22.727Z,4.60
2022-10-23T22:06:49.986Z,5.15
2022-10-23T22:09:20.980Z,4.85
2022-10-23T22:11:52.853Z,4.72
2022-10-23T22:14:20.212Z,4.82
2022-10-23T22:16:47.945Z,4.18
2022-10-23T22:19:17.547Z,4.90
2022-10-23T22:21:44.958Z,5.03
2022-10-23T22:24:12.303Z,5.20
2022-10-23T22:26:43.622Z,4.40
2022-10-23T22:29:22.227Z,4.30
2022-10-23T22:31:50.143Z,4.88
2022-10-23T22:37:16.687Z,4.47
2022-10-23T22:39:43.425Z,4.40
2022-10-23T22:42:10.229Z,4.50
2022-10-23T22:44:37.022Z,4.05
2022-10-23T22:47:04.046Z,4.05
2022-10-23T22:49:30.827Z,3.70
2022-10-23T22:51:57.647Z,4.63
2022-10-23T22:54:24.718Z,4.07
2022-10-23T22:56:51.541Z,4.07
2022-10-23T22:59:18.489Z,3.83
2022-10-23T23:01:48.140Z,4.00
2022-10-23T23:04:37.923Z,3.97
2022-10-23T23:07:07.242Z,4.18
2022-10-23T23:09:37.995Z,4.20
2022-10-23T23:12:05.627Z,4.53
2022-10-23T23:14:32.477Z,3.97
2022-10-23T23:16:59.263Z,4.50
2022-10-23T23:19:26.634Z,3.85
2022-10-23T23:21:58.590Z,3.97
2022-10-23T23:24:26.604Z,4.18
2022-10-23T23:26:53.441Z,4.07
2022-10-23T23:29:20.338Z,3.80
2022-10-23T23:31:47.154Z,4.07
2022-10-23T23:34:13.982Z,3.97
2022-10-23T23:36:41.362Z,3.70
2022-10-23T23:39:08.135Z,3.85
2022-10-23T23:41:34.876Z,3.70
2022-10-23T23:44:01.792Z,3.60
2022-10-23T23:46:28.592Z,4.82
2022-10-23T23:48:55.375Z,4.32
2022-10-23T23:51:25.297Z,3.63
2022-10-23T23:53:52.570Z,3.80
2022-10-23T23:56:19.841Z,4.32
2022-10-23T23:58:46.845Z,3.85
